Time;durP1;ratioP1;P1;durP2;ratioP2;P2;SDS_P1;SDS_P2;PMS_P1;PMS_P2;Temp;Humidity;BMP_temperature;BMP_pressure;BME280_temperature;BME280_humidity;BME280_pressure;Samples;Min_cycle;Max_cycle;Signal;HPM_P1;HPM_P2
2021/10/12 04:48:19;;;;;;;;;;;;;;;2.58;93.41;100269.69;5429906;23;20328;-79
2021/10/12 04:50:44;;;;;;;;;;;;;;;2.51;93.10;100263.59;5027579;28;19925;-79
2021/10/12 04:53:09;;;;;;;;;;;;;;;2.49;91.95;100264.47;5044965;28;19921;-78
2021/10/12 04:55:35;;;;;;;;;;;;;;;2.41;91.77;100263.63;5045012;28;20257;-79
2021/10/12 04:58:00;;;;;;;;;;;;;;;2.27;91.11;100248.84;5039485;28;19920;-79
2021/10/12 05:00:25;;;;;;;;;;;;;;;2.24;90.71;100246.22;5038827;28;19921;-79
2021/10/12 05:02:51;;;;;;;;;;;;;;;2.12;90.19;100244.50;5043556;28;19971;-79
2021/10/12 05:05:16;;;;;;;;;;;;;;;2.10;90.32;100245.38;5044817;28;20326;-80
2021/10/12 05:07:41;;;;;;;;;;;;;;;2.06;90.24;100243.63;5045368;28;19923;-80
2021/10/12 05:10:07;;;;;;;;;;;;;;;1.97;91.30;100244.50;5045021;28;19923;-79
2021/10/12 05:12:32;;;;;;;;;;;;;;;1.92;91.91;100249.72;5044661;28;19975;-79
2021/10/12 05:14:58;;;;;;;;;;;;;;;1.98;91.89;100251.50;5026899;28;20282;-79
2021/10/12 05:17:35;;;;;;;;;;;;;;;1.91;91.58;100253.22;5018855;28;19921;-80
2021/10/12 05:20:01;;;;;;;;;;;;;;;1.92;91.80;100252.34;5043628;28;19939;-78
2021/10/12 05:22:26;;;;;;;;;;;;;;;1.82;91.35;100253.22;5044828;28;19921;-77
2021/10/12 05:24:52;;;;;;;;;;;;;;;1.79;91.61;100255.84;5026460;28;19917;-77
2021/10/12 05:27:17;;;;;;;;;;;;;;;1.69;90.94;100251.47;5026489;28;19928;-80
2021/10/12 05:29:43;;;;;;;;;;;;;;;1.68;91.69;100241.91;5027075;28;20287;-80
2021/10/12 05:32:08;;;;;;;;;;;;;;;1.92;94.58;100252.34;5043348;28;20478;-79
2021/10/12 05:34:34;;;;;;;;;;;;;;;2.09;97.60;100243.63;5044444;28;20360;-81
2021/10/12 05:36:59;;;;;;;;;;;;;;;2.42;100.00;100249.69;5026450;28;19921;-81
2021/10/12 05:39:24;;;;;;;;;;;;;;;2.79;100.00;100250.44;5027027;28;20019;-79
2021/10/12 05:41:49;;;;;;;;;;;;;;;2.84;100.00;100250.41;5026404;28;20334;-81
2021/10/12 05:44:15;;;;;;;;;;;;;;;2.98;100.00;100248.59;5020833;28;19976;-81
2021/10/12 05:46:40;;;;;;;;;;;;;;;3.09;100.00;100240.72;5025453;28;19916;-80
2021/10/12 05:49:06;;;;;;;;;;;;;;;3.13;100.00;100247.69;5019451;28;20007;-80
2021/10/12 05:51:31;;;;;;;;;;;;;;;3.41;100.00;100253.63;5026183;28;19921;-80
2021/10/12 05:53:58;;;;;;;;;;;;;;;3.59;100.00;100251.75;5043716;28;19917;-81
2021/10/12 05:59:27;;;;;;;;;;;;;;;3.54;100.00;100253.53;4983104;28;19918;-81
2021/10/12 06:01:53;;;;;;;;;;;;;;;3.47;100.00;100249.25;4981231;28;20038;-81
2021/10/12 06:04:18;;;;;;;;;;;;;;;3.35;100.00;100243.19;5002961;28;19921;-81
2021/10/12 06:06:43;;;;;;;;;;;;;;;3.45;100.00;100250.09;5043915;28;19921;-81
2021/10/12 06:09:10;;;;;;;;;;;;;;;3.50;100.00;100247.47;5043859;28;20265;-81
2021/10/12 06:11:35;;;;;;;;;;;;;;;3.52;100.00;100245.69;5026161;28;19921;-81
2021/10/12 06:14:00;;;;;;;;;;;;;;;3.54;100.00;100243.97;5026262;28;19979;-81
2021/10/12 06:16:26;;;;;;;;;;;;;;;3.43;100.00;100251.88;5042284;28;20250;-81
2021/10/12 06:18:51;;;;;;;;;;;;;;;3.42;100.00;100249.25;5024307;28;19920;-81
2021/10/12 06:21:16;;;;;;;;;;;;;;;3.42;100.00;100241.41;5026166;28;20372;-81
2021/10/12 06:23:41;;;;;;;;;;;;;;;3.44;100.00;100252.75;5043511;28;19921;-81
2021/10/12 06:26:07;;;;;;;;;;;;;;;3.54;100.00;100253.53;5043300;28;19928;-81
2021/10/12 06:28:32;;;;;;;;;;;;;;;3.59;100.00;100252.66;5043291;28;20363;-81
2021/10/12 06:30:57;;;;;;;;;;;;;;;3.53;100.00;100251.81;5043325;28;19917;-81
2021/10/12 06:33:23;;;;;;;;;;;;;;;3.64;100.00;100244.75;5024000;28;19917;-81
2021/10/12 06:35:48;;;;;;;;;;;;;;;3.69;100.00;100242.97;5025458;28;19917;-81
2021/10/12 06:38:14;;;;;;;;;;;;;;;3.63;100.00;100243.00;5025352;28;19916;-81
2021/10/12 06:40:39;;;;;;;;;;;;;;;3.62;100.00;100251.75;5025781;28;19974;-80
2021/10/12 06:43:05;;;;;;;;;;;;;;;3.68;100.00;100245.59;5025317;28;19917;-81
2021/10/12 06:45:30;;;;;;;;;;;;;;;3.61;100.00;100236.91;5019724;28;19920;-81
2021/10/12 06:47:55;;;;;;;;;;;;;;;3.61;100.00;100245.63;5023830;28;19986;-81
2021/10/12 06:50:22;;;;;;;;;;;;;;;3.60;100.00;100238.66;5025391;28;19920;-80
2021/10/12 06:52:47;;;;;;;;;;;;;;;3.70;100.00;100239.47;5042884;28;19916;-81
2021/10/12 06:55:14;;;;;;;;;;;;;;;3.73;100.00;100233.31;5025180;28;19966;-80
2021/10/12 06:57:40;;;;;;;;;;;;;;;3.73;100.00;100238.56;5042126;28;19971;-80
2021/10/12 07:00:06;;;;;;;;;;;;;;;3.74;100.00;100228.06;5042814;28;20271;-80
2021/10/12 07:02:31;;;;;;;;;;;;;;;3.71;100.00;100225.47;5023836;28;19960;-80
2021/10/12 07:04:57;;;;;;;;;;;;;;;3.78;100.00;100231.53;5042933;28;19971;-81
2021/10/12 07:07:22;;;;;;;;;;;;;;;3.75;100.00;100235.06;5042315;28;19924;-80
2021/10/12 07:09:47;;;;;;;;;;;;;;;3.80;100.00;100233.25;5024912;28;19916;-80
2021/10/12 07:12:12;;;;;;;;;;;;;;;3.79;100.00;100222.78;5042899;28;19924;-80
2021/10/12 07:14:38;;;;;;;;;;;;;;;3.81;100.00;100215.78;5024762;28;19971;-80
2021/10/12 07:17:03;;;;;;;;;;;;;;;3.76;100.00;100215.81;5041201;28;19921;-80
2021/10/12 07:19:28;;;;;;;;;;;;;;;3.81;100.00;100214.03;5042538;28;19920;-80
2021/10/12 07:21:54;;;;;;;;;;;;;;;3.87;100.00;100214.88;5024861;28;19921;-79
2021/10/12 07:24:20;;;;;;;;;;;;;;;3.82;100.00;100207.91;5024457;28;20078;-80
2021/10/12 07:26:45;;;;;;;;;;;;;;;3.82;100.00;100205.28;5042618;28;19928;-80
2021/10/12 07:29:10;;;;;;;;;;;;;;;3.90;100.00;100205.22;5042099;28;19917;-80
2021/10/12 07:31:36;;;;;;;;;;;;;;;3.88;100.00;100208.72;5042166;28;19940;-80
2021/10/12 07:41:47;;;;;;;;;;;;;;;3.97;100.00;100204.28;5296975;23;19932;-80
2021/10/12 07:44:12;;;;;;;;;;;;;;;4.04;100.00;100198.97;5024328;28;19921;-79
2021/10/12 07:46:37;;;;;;;;;;;;;;;4.04;100.00;100191.97;5017420;28;19920;-79
2021/10/12 07:49:02;;;;;;;;;;;;;;;4.04;100.00;100197.22;5033870;28;20276;-79
2021/10/12 07:51:29;;;;;;;;;;;;;;;4.12;100.00;100195.41;5007319;28;19925;-79
2021/10/12 07:53:57;;;;;;;;;;;;;;;4.09;100.00;100200.66;5042302;28;19916;-80
2021/10/12 07:56:36;;;;;;;;;;;;;;;4.11;100.00;100198.88;5022826;28;19924;-80
2021/10/12 07:59:01;;;;;;;;;;;;;;;4.08;100.00;100193.69;5024222;28;19963;-80
2021/10/12 08:01:26;;;;;;;;;;;;;;;4.08;100.00;100188.44;5041523;28;19948;-80
2021/10/12 08:03:52;;;;;;;;;;;;;;;4.14;100.00;100198.88;5024056;28;19917;-81
2021/10/12 08:06:17;;;;;;;;;;;;;;;4.07;100.00;100191.97;5041634;28;20398;-79
2021/10/12 08:08:42;;;;;;;;;;;;;;;3.98;100.00;100184.16;5041544;28;19917;-80
2021/10/12 08:11:08;;;;;;;;;;;;;;;4.01;100.00;100184.16;5022738;28;20398;-80
2021/10/12 08:13:34;;;;;;;;;;;;;;;4.03;100.00;100178.88;5023666;28;19913;-80
2021/10/12 08:16:07;;;;;;;;;;;;;;;4.05;100.00;100180.59;5041567;28;19924;-79
2021/10/12 08:18:33;;;;;;;;;;;;;;;4.09;100.00;100169.19;5041423;28;19924;-80
2021/10/12 08:20:58;;;;;;;;;;;;;;;4.12;100.00;100165.69;5041373;28;19921;-80
2021/10/12 08:23:23;;;;;;;;;;;;;;;4.13;100.00;100170.03;5023871;28;19913;-78
2021/10/12 08:25:48;;;;;;;;;;;;;;;4.10;100.00;100168.31;5022906;28;19920;-80
2021/10/12 08:28:14;;;;;;;;;;;;;;;4.12;100.00;100169.16;5023318;28;19917;-80
2021/10/12 08:30:39;;;;;;;;;;;;;;;4.24;100.00;100169.91;5035168;28;19916;-79
2021/10/12 08:33:04;;;;;;;;;;;;;;;4.24;100.00;100172.53;5041263;28;19917;-81
2021/10/12 08:35:29;;;;;;;;;;;;;;;4.27;100.00;100175.13;5023881;28;20287;-79
2021/10/12 08:37:55;;;;;;;;;;;;;;;4.27;100.00;100169.88;5023519;28;19918;-79
2021/10/12 08:40:20;;;;;;;;;;;;;;;4.40;100.00;100175.88;5039976;28;19917;-80
2021/10/12 08:42:46;;;;;;;;;;;;;;;4.30;100.00;100178.59;5041599;28;19956;-81
2021/10/12 08:45:12;;;;;;;;;;;;;;;4.32;100.00;100165.44;5023810;28;19995;-79
2021/10/12 08:47:38;;;;;;;;;;;;;;;4.34;99.98;100176.78;5040161;28;19921;-79
2021/10/12 08:50:05;;;;;;;;;;;;;;;4.31;99.66;100169.84;5041327;28;19962;-79
2021/10/12 08:52:30;;;;;;;;;;;;;;;4.35;99.34;100166.28;5041637;28;20387;-80
2021/10/12 08:54:56;;;;;;;;;;;;;;;4.33;99.15;100164.56;5041160;28;19924;-80
2021/10/12 08:57:36;;;;;;;;;;;;;;;4.32;98.87;100160.22;5044779;28;20077;-81
2021/10/12 09:00:06;;;;;;;;;;;;;;;4.28;98.48;100153.28;5044810;28;19963;-80
2021/10/12 09:02:32;;;;;;;;;;;;;;;4.28;97.98;100151.50;5044221;28;19925;-80
2021/10/12 09:04:57;;;;;;;;;;;;;;;4.30;97.80;100154.97;5044974;28;19928;-80
2021/10/12 09:07:26;;;;;;;;;;;;;;;4.37;97.87;100150.53;5045110;28;19916;-79
2021/10/12 09:09:52;;;;;;;;;;;;;;;4.49;97.79;100147.75;5043220;28;19923;-81
2021/10/12 09:12:18;;;;;;;;;;;;;;;4.42;97.66;100143.50;5044700;28;20334;-79
2021/10/12 09:14:51;;;;;;;;;;;;;;;4.50;97.58;100140.75;5044816;28;19916;-80
2021/10/12 09:17:27;;;;;;;;;;;;;;;4.48;96.94;100140.78;5026787;28;19917;-81
2021/10/12 09:19:52;;;;;;;;;;;;;;;4.45;96.47;100138.22;5026188;28;19974;-80
2021/10/12 09:22:17;;;;;;;;;;;;;;;4.49;96.38;100137.25;5044492;28;19920;-79
2021/10/12 09:24:42;;;;;;;;;;;;;;;4.42;96.01;100119.88;5045080;28;19921;-80
2021/10/12 09:27:13;;;;;;;;;;;;;;;4.45;95.93;100122.47;5043110;28;19940;-79
2021/10/12 09:29:41;;;;;;;;;;;;;;;4.49;95.37;100120.66;5044601;28;19932;-79
2021/10/12 09:32:07;;;;;;;;;;;;;;;4.49;95.29;100120.66;5039348;28;19917;-79
2021/10/12 09:34:35;;;;;;;;;;;;;;;4.47;94.71;100120.69;5026280;28;19921;-80
2021/10/12 09:37:00;;;;;;;;;;;;;;;4.54;94.53;100118.84;5026838;28;19919;-79
2021/10/12 09:39:39;;;;;;;;;;;;;;;4.55;94.38;100118.81;5044385;28;19921;-79
2021/10/12 09:42:06;;;;;;;;;;;;;;;4.49;94.11;100113.66;5043099;28;19979;-80
2021/10/12 09:44:32;;;;;;;;;;;;;;;4.62;94.39;100122.22;5043022;28;20293;-79
2021/10/12 09:47:06;;;;;;;;;;;;;;;4.64;94.25;100120.47;5044056;28;19924;-78
2021/10/12 09:49:31;;;;;;;;;;;;;;;4.58;94.13;100114.41;5024863;28;20020;-79
2021/10/12 09:52:00;;;;;;;;;;;;;;;4.57;94.12;100113.56;5044049;28;20023;-80
2021/10/12 09:54:26;;;;;;;;;;;;;;;4.55;93.97;100110.09;5041336;28;20443;-80
2021/10/12 09:56:52;;;;;;;;;;;;;;;4.62;94.01;100105.63;5025108;28;19917;-79
2021/10/12 09:59:18;;;;;;;;;;;;;;;4.69;93.95;100107.25;5044349;28;19932;-79
2021/10/12 10:01:45;;;;;;;;;;;;;;;4.75;94.09;100099.31;5042912;28;20004;-80
2021/10/12 10:04:11;;;;;;;;;;;;;;;4.67;93.65;100101.16;5025987;28;20314;-80
2021/10/12 10:06:40;;;;;;;;;;;;;;;4.66;93.94;100097.69;5024921;28;19987;-80
2021/10/12 10:09:08;;;;;;;;;;;;;;;4.76;94.09;100097.56;5022830;28;19921;-79
2021/10/12 10:11:34;;;;;;;;;;;;;;;4.69;93.65;100094.13;5024759;28;19916;-79
2021/10/12 10:14:01;;;;;;;;;;;;;;;4.64;93.29;100093.34;5043724;28;19928;-79
2021/10/12 10:16:27;;;;;;;;;;;;;;;4.67;93.11;100088.91;5020013;28;20015;-80
2021/10/12 10:18:52;;;;;;;;;;;;;;;4.71;93.06;100087.97;5023046;28;20011;-79
2021/10/12 10:21:18;;;;;;;;;;;;;;;4.72;93.06;100080.97;5021323;28;19975;-79
2021/10/12 10:23:48;;;;;;;;;;;;;;;4.73;92.80;100088.81;5025281;28;19923;-79
2021/10/12 10:26:26;;;;;;;;;;;;;;;4.76;92.82;100079.19;5024290;28;19917;-80
2021/10/12 10:28:53;;;;;;;;;;;;;;;4.79;92.60;100068.66;5025294;28;19917;-79
2021/10/12 10:31:36;;;;;;;;;;;;;;;4.84;92.85;100065.03;5019117;28;20360;-79
2021/10/12 10:34:22;;;;;;;;;;;;;;;4.80;92.61;100063.34;5018899;28;20715;-80
2021/10/12 10:36:47;;;;;;;;;;;;;;;4.82;92.14;100064.22;5025501;28;19921;-79
2021/10/12 10:39:33;;;;;;;;;;;;;;;4.76;92.05;100056.41;5043107;28;20280;-79
2021/10/12 10:41:58;;;;;;;;;;;;;;;4.80;91.98;100058.09;5041144;28;20402;-80
2021/10/12 10:44:43;;;;;;;;;;;;;;;4.84;92.00;100059.78;5025108;28;19920;-79
2021/10/12 10:47:08;;;;;;;;;;;;;;;4.84;91.67;100058.94;5043040;28;20291;-80
2021/10/12 10:49:34;;;;;;;;;;;;;;;4.84;91.96;100054.53;5025048;28;19928;-78
2021/10/12 10:52:07;;;;;;;;;;;;;;;4.93;92.07;100057.91;5043149;28;19967;-79
2021/10/12 10:54:38;;;;;;;;;;;;;;;4.87;91.86;100061.50;5042951;28;19921;-80
2021/10/12 10:57:10;;;;;;;;;;;;;;;4.90;92.12;100053.59;5023369;28;19943;-79
2021/10/12 10:59:35;;;;;;;;;;;;;;;4.98;92.29;100042.94;5042810;28;19916;-79
2021/10/12 11:02:01;;;;;;;;;;;;;;;5.02;92.15;100049.91;5025024;28;20322;-80
2021/10/12 11:04:46;;;;;;;;;;;;;;;4.99;92.26;100050.78;5024805;28;19921;-79
2021/10/12 11:07:17;;;;;;;;;;;;;;;4.98;92.05;100043.84;5024441;28;20375;-80
2021/10/12 11:09:43;;;;;;;;;;;;;;;5.03;91.89;100038.50;5040772;28;19921;-79
2021/10/12 11:12:19;;;;;;;;;;;;;;;5.04;91.70;100046.38;5022457;28;19940;-78
2021/10/12 11:14:44;;;;;;;;;;;;;;;5.03;92.01;100043.75;5042302;28;19925;-80
2021/10/12 11:17:10;;;;;;;;;;;;;;;4.99;91.56;100032.41;5024793;28;19928;-80
2021/10/12 11:19:54;;;;;;;;;;;;;;;5.08;91.63;100031.41;5042480;28;19918;-79
2021/10/12 11:22:20;;;;;;;;;;;;;;;5.09;91.54;100030.53;5023241;28;20360;-79
2021/10/12 11:24:45;;;;;;;;;;;;;;;5.07;91.41;100024.41;5042256;28;19927;-79
2021/10/12 11:27:11;;;;;;;;;;;;;;;5.14;91.25;100020.81;5038658;28;19921;-79
2021/10/12 11:29:36;;;;;;;;;;;;;;;5.11;91.05;100020.00;5021155;28;19975;-79
2021/10/12 11:32:02;;;;;;;;;;;;;;;5.08;90.81;100019.13;5018660;28;19924;-79
2021/10/12 11:34:27;;;;;;;;;;;;;;;5.14;91.11;100014.66;5023853;28;19921;-79
2021/10/12 11:36:52;;;;;;;;;;;;;;;5.14;90.93;100009.41;5042325;28;19917;-81
2021/10/12 11:39:20;;;;;;;;;;;;;;;5.14;90.84;100009.41;5041986;28;19919;-80
2021/10/12 11:41:45;;;;;;;;;;;;;;;5.13;90.56;100013.81;5022532;28;19968;-81
2021/10/12 11:44:16;;;;;;;;;;;;;;;5.13;90.56;100005.06;5042578;28;19964;-80
2021/10/12 11:46:48;;;;;;;;;;;;;;;5.18;90.41;100009.34;5022988;28;20028;-80
2021/10/12 11:49:15;;;;;;;;;;;;;;;5.16;90.59;100002.41;5023606;28;19921;-81
2021/10/12 11:51:43;;;;;;;;;;;;;;;5.19;90.50;100003.19;5024389;28;19917;-80
2021/10/12 11:54:09;;;;;;;;;;;;;;;5.18;90.66;100000.59;5041801;28;19967;-81
2021/10/12 11:56:36;;;;;;;;;;;;;;;5.18;90.33;100000.59;5022359;28;20269;-79
2021/10/12 11:59:02;;;;;;;;;;;;;;;5.20;90.23;99996.19;5018696;28;20260;-80
2021/10/12 12:01:29;;;;;;;;;;;;;;;5.22;90.18;99997.03;5019489;28;19963;-80
2021/10/12 12:03:55;;;;;;;;;;;;;;;5.20;90.23;100004.06;5017622;28;20012;-79
2021/10/12 12:06:21;;;;;;;;;;;;;;;5.24;90.39;100003.97;5022271;28;20019;-80
2021/10/12 12:08:47;;;;;;;;;;;;;;;5.21;90.19;99996.16;5022793;28;20043;-80
2021/10/12 12:11:15;;;;;;;;;;;;;;;5.21;89.96;99990.03;5032313;28;20032;-80
2021/10/12 12:13:41;;;;;;;;;;;;;;;5.26;90.08;99989.06;5061516;28;19968;-79
2021/10/12 12:16:06;;;;;;;;;;;;;;;5.26;89.99;99991.72;5036315;28;19971;-79
2021/10/12 12:18:37;;;;;;;;;;;;;;;5.27;89.74;99993.41;5061424;28;19928;-79
2021/10/12 12:21:03;;;;;;;;;;;;;;;5.28;89.68;99986.41;5043990;28;20011;-81
2021/10/12 12:23:28;;;;;;;;;;;;;;;5.30;89.69;99986.38;5043670;28;20007;-79
2021/10/12 12:25:55;;;;;;;;;;;;;;;5.33;90.04;99981.94;5042003;28;20011;-79
2021/10/12 12:28:21;;;;;;;;;;;;;;;5.40;90.24;99980.06;5061539;28;19917;-80
2021/10/12 12:30:46;;;;;;;;;;;;;;;5.37;90.07;99975.72;5064238;28;20283;-80
2021/10/12 12:33:12;;;;;;;;;;;;;;;5.39;90.02;99979.22;5047614;28;19913;-79
2021/10/12 12:35:40;;;;;;;;;;;;;;;5.41;90.12;99974.78;5065336;28;19921;-78
2021/10/12 12:38:05;;;;;;;;;;;;;;;5.39;90.05;99976.59;5046480;28;19913;-80
2021/10/12 12:40:31;;;;;;;;;;;;;;;5.41;89.72;99977.41;5046282;28;19924;-78
2021/10/12 12:42:57;;;;;;;;;;;;;;;5.42;89.68;99973.88;5065117;28;19925;-78
2021/10/12 12:45:23;;;;;;;;;;;;;;;5.41;89.46;99966.03;5065355;28;19917;-78
2021/10/12 12:47:59;;;;;;;;;;;;;;;5.44;89.50;99965.94;5065254;28;19943;-81
2021/10/12 12:50:26;;;;;;;;;;;;;;;5.54;90.16;99962.28;5065512;28;19917;-77
2021/10/12 12:52:52;;;;;;;;;;;;;;;5.60;91.33;99956.91;5065114;28;19999;-78
2021/10/12 12:55:49;;;;;;;;;;;;;;;5.66;92.30;99955.88;5063774;28;20031;-79
2021/10/12 12:58:14;;;;;;;;;;;;;;;5.63;93.60;99953.31;4999090;28;19912;-79
2021/10/12 13:00:56;;;;;;;;;;;;;;;5.60;93.77;99946.38;5065206;28;20326;-79
2021/10/12 13:03:21;;;;;;;;;;;;;;;5.54;94.34;99946.50;5047070;28;19917;-78
2021/10/12 13:05:46;;;;;;;;;;;;;;;5.53;94.58;99941.28;5064571;28;19927;-80
2021/10/12 13:08:13;;;;;;;;;;;;;;;5.48;95.50;99930.00;5064609;28;19923;-79
2021/10/12 13:10:38;;;;;;;;;;;;;;;5.49;96.57;99936.97;5045720;28;19920;-78
2021/10/12 13:13:03;;;;;;;;;;;;;;;5.59;98.16;99931.50;5046815;28;19927;-80
2021/10/12 13:15:28;;;;;;;;;;;;;;;5.63;100.00;99938.44;5038767;28;20055;-79
2021/10/12 13:17:54;;;;;;;;;;;;;;;5.71;100.00;99932.13;5040206;28;20320;-79
2021/10/12 13:20:19;;;;;;;;;;;;;;;5.86;100.00;99931.81;5061147;28;19920;-78
2021/10/12 13:22:44;;;;;;;;;;;;;;;6.11;100.00;99920.78;5064445;28;20382;-78
2021/10/12 13:25:10;;;;;;;;;;;;;;;6.31;100.00;99928.25;5062861;28;19920;-78
2021/10/12 13:27:35;;;;;;;;;;;;;;;6.44;100.00;99932.31;5046320;28;19916;-78
2021/10/12 13:30:01;;;;;;;;;;;;;;;6.50;100.00;99926.06;5046737;28;20359;-78
2021/10/12 13:32:26;;;;;;;;;;;;;;;6.57;100.00;99927.63;5064194;28;20330;-78
2021/10/12 13:34:53;;;;;;;;;;;;;;;6.69;100.00;99923.84;5064767;28;19923;-79
2021/10/12 13:37:22;;;;;;;;;;;;;;;6.75;100.00;99912.28;5040763;28;19921;-79
2021/10/12 13:39:47;;;;;;;;;;;;;;;6.84;100.00;99917.31;5046003;28;19938;-78
2021/10/12 13:42:13;;;;;;;;;;;;;;;6.86;100.00;99918.13;5062892;28;19921;-78
2021/10/12 13:44:39;;;;;;;;;;;;;;;6.93;100.00;99917.09;5057572;28;19924;-79
2021/10/12 13:47:05;;;;;;;;;;;;;;;7.00;100.00;99915.16;5046039;28;19935;-79
2021/10/12 13:49:30;;;;;;;;;;;;;;;7.04;100.00;99915.03;5046613;28;19916;-78
2021/10/12 13:51:55;;;;;;;;;;;;;;;7.12;100.00;99916.63;5039634;28;19921;-78
2021/10/12 13:54:22;;;;;;;;;;;;;;;7.15;100.00;99909.47;5045750;28;20015;-78
2021/10/12 13:56:48;;;;;;;;;;;;;;;7.17;100.00;99907.66;5044201;28;20360;-78
2021/10/12 13:59:13;;;;;;;;;;;;;;;7.24;100.00;99903.97;5038215;28;19927;-80
2021/10/12 14:01:38;;;;;;;;;;;;;;;7.24;100.00;99896.06;5039815;28;19921;-79
2021/10/12 14:04:03;;;;;;;;;;;;;;;7.29;100.00;99901.19;5063693;28;20026;-79
2021/10/12 14:06:29;;;;;;;;;;;;;;;7.35;100.00;99892.25;5045969;28;20260;-78
2021/10/12 14:08:54;;;;;;;;;;;;;;;7.38;100.00;99894.81;5045624;28;19985;-78
2021/10/12 14:11:19;;;;;;;;;;;;;;;7.42;100.00;99893.81;5062434;28;19939;-78
2021/10/12 14:13:44;;;;;;;;;;;;;;;7.45;100.00;99893.69;5037446;28;19966;-78
2021/10/12 14:16:10;;;;;;;;;;;;;;;7.51;100.00;99887.41;5037250;28;19917;-78
2021/10/12 14:18:35;;;;;;;;;;;;;;;7.52;100.00;99887.38;5063849;28;20287;-79
2021/10/12 14:21:01;;;;;;;;;;;;;;;7.57;100.00;99884.59;5045467;28;19921;-80
2021/10/12 14:23:27;;;;;;;;;;;;;;;7.59;100.00;99883.63;5063187;28;19917;-79
2021/10/12 14:25:52;;;;;;;;;;;;;;;6.68;100.00;99885.22;5043868;28;19921;-78
2021/10/12 14:28:18;;;;;;;;;;;;;;;5.24;100.00;99895.41;5045083;28;19964;-79
2021/10/12 14:30:44;;;;;;;;;;;;;;;4.46;100.00;99893.25;5063801;28;20057;-78
2021/10/12 14:33:10;;;;;;;;;;;;;;;4.14;100.00;99896.38;5063169;28;19948;-79
2021/10/12 14:35:35;;;;;;;;;;;;;;;3.85;100.00;99881.94;5063027;28;20437;-78
2021/10/12 14:38:01;;;;;;;;;;;;;;;3.74;100.00;99884.69;5062955;28;19923;-78
2021/10/12 14:40:26;;;;;;;;;;;;;;;3.53;100.00;99885.84;5061935;28;19969;-79
2021/10/12 14:42:52;;;;;;;;;;;;;;;3.42;100.00;99885.97;5062873;28;20023;-78
2021/10/12 14:45:17;;;;;;;;;;;;;;;3.36;99.81;99878.19;5062897;28;19978;-78
2021/10/12 14:47:42;;;;;;;;;;;;;;;3.32;99.00;99871.28;5063182;28;19916;-78
2021/10/12 14:50:09;;;;;;;;;;;;;;;3.14;98.05;99874.09;5063040;28;20077;-79
2021/10/12 14:52:35;;;;;;;;;;;;;;;3.18;98.67;99878.41;5061143;28;19917;-80
2021/10/12 14:55:00;;;;;;;;;;;;;;;3.15;98.30;99873.22;5061677;28;19917;-78
2021/10/12 14:57:26;;;;;;;;;;;;;;;3.06;97.98;99871.56;5062404;28;19942;-79
2021/10/12 14:59:51;;;;;;;;;;;;;;;2.96;97.48;99870.78;5062622;28;19959;-78
2021/10/12 15:02:17;;;;;;;;;;;;;;;2.96;97.03;99870.78;5062939;28;19974;-78
2021/10/12 15:04:42;;;;;;;;;;;;;;;2.87;96.07;99865.63;5062348;28;19928;-79
2021/10/12 15:07:07;;;;;;;;;;;;;;;2.81;95.63;99857.84;5062115;28;19931;-80
2021/10/12 15:09:32;;;;;;;;;;;;;;;2.66;95.30;99864.97;5062502;28;19916;-78
2021/10/12 15:11:58;;;;;;;;;;;;;;;2.64;94.78;99856.25;5061636;28;19923;-79
2021/10/12 15:14:26;;;;;;;;;;;;;;;2.53;94.56;99851.13;5062619;28;19917;-79
2021/10/12 15:16:52;;;;;;;;;;;;;;;2.47;93.94;99856.44;5062278;28;19928;-79
2021/10/12 15:19:17;;;;;;;;;;;;;;;2.44;94.11;99852.97;5062596;28;19916;-79
2021/10/12 15:21:43;;;;;;;;;;;;;;;2.31;93.88;99855.69;5062712;28;19917;-79
2021/10/12 15:24:09;;;;;;;;;;;;;;;2.33;93.66;99846.09;5061955;28;19947;-79
2021/10/12 15:26:34;;;;;;;;;;;;;;;2.26;93.66;99851.38;5060806;28;20015;-78
2021/10/12 15:28:59;;;;;;;;;;;;;;;2.16;93.83;99845.34;5062365;28;19920;-79
2021/10/12 15:31:25;;;;;;;;;;;;;;;2.12;93.30;99851.47;5044312;28;19967;-80
2021/10/12 15:33:50;;;;;;;;;;;;;;;2.07;92.45;99853.25;5061949;28;19924;-78
2021/10/12 15:36:15;;;;;;;;;;;;;;;1.97;92.55;99850.69;5062187;28;19916;-78
2021/10/12 15:38:40;;;;;;;;;;;;;;;1.92;92.37;99849.88;5044309;28;20354;-79
2021/10/12 15:41:07;;;;;;;;;;;;;;;1.86;92.34;99844.69;5042617;28;19917;-79
2021/10/12 15:43:32;;;;;;;;;;;;;;;1.84;92.01;99848.19;5062012;28;19917;-78
2021/10/12 15:45:57;;;;;;;;;;;;;;;1.77;91.69;99849.97;5062156;28;20381;-80
2021/10/12 15:48:24;;;;;;;;;;;;;;;1.76;91.84;99849.09;5062129;28;19975;-79
2021/10/12 15:50:49;;;;;;;;;;;;;;;1.76;91.56;99850.84;5060881;28;20368;-79
2021/10/12 15:53:14;;;;;;;;;;;;;;;1.67;91.44;99849.16;5061687;28;19923;-79
2021/10/12 15:55:40;;;;;;;;;;;;;;;1.63;91.35;99850.06;5061056;28;19974;-79
2021/10/12 15:58:05;;;;;;;;;;;;;;;1.72;92.97;99849.97;5043865;28;19916;-79
2021/10/12 16:00:33;;;;;;;;;;;;;;;1.98;95.64;99849.84;5062334;28;20016;-78
2021/10/12 16:02:58;;;;;;;;;;;;;;;2.31;99.01;99847.84;5061967;28;19917;-78
2021/10/12 16:05:24;;;;;;;;;;;;;;;2.64;100.00;99850.19;5061028;28;19927;-78
2021/10/12 16:07:49;;;;;;;;;;;;;;;2.79;100.00;99846.53;5060394;28;19960;-78
2021/10/12 16:10:14;;;;;;;;;;;;;;;2.89;100.00;99848.19;5060128;28;20394;-78
2021/10/12 16:12:39;;;;;;;;;;;;;;;2.96;100.00;99847.22;5062092;28;19936;-78
2021/10/12 16:18:15;;;;;;;;;;;;;;;3.16;100.00;99848.75;5061776;28;19939;-78
2021/10/12 16:21:11;;;;;;;;;;;;;;;3.15;100.00;99836.56;5060368;28;20279;-78
2021/10/12 16:23:36;;;;;;;;;;;;;;;3.16;100.00;99853.97;5061307;28;19920;-78
2021/10/12 16:26:02;;;;;;;;;;;;;;;3.23;100.00;99842.56;5060464;28;19916;-78
2021/10/12 16:28:27;;;;;;;;;;;;;;;3.27;100.00;99842.50;5061342;28;19996;-79
2021/10/12 16:30:52;;;;;;;;;;;;;;;3.28;100.00;99848.59;5061516;28;19926;-79
2021/10/12 16:33:18;;;;;;;;;;;;;;;3.29;100.00;99850.34;5061092;28;19912;-79
2021/10/12 16:35:43;;;;;;;;;;;;;;;3.35;100.00;99842.44;5061799;28;19920;-79
2021/10/12 16:38:09;;;;;;;;;;;;;;;3.33;100.00;99841.56;5061345;28;19921;-80
2021/10/12 16:40:34;;;;;;;;;;;;;;;3.39;100.00;99841.47;5059933;28;19994;-79
2021/10/12 16:42:59;;;;;;;;;;;;;;;3.34;100.00;99843.31;5059213;28;20287;-79
2021/10/12 16:45:26;;;;;;;;;;;;;;;3.46;100.00;99847.50;5061426;28;19920;-79
2021/10/12 16:47:51;;;;;;;;;;;;;;;3.47;100.00;99851.00;5060367;28;19924;-80
2021/10/12 16:50:16;;;;;;;;;;;;;;;3.45;100.00;99846.66;5043036;28;20080;-79
2021/10/12 16:52:42;;;;;;;;;;;;;;;3.49;100.00;99849.22;5060278;28;19923;-80
2021/10/12 16:55:08;;;;;;;;;;;;;;;3.51;100.00;99848.34;5059963;28;19925;-79
2021/10/12 16:57:33;;;;;;;;;;;;;;;3.52;100.00;99851.81;5058181;28;19927;-79
2021/10/12 16:59:58;;;;;;;;;;;;;;;3.62;100.00;99848.16;5061367;28;19912;-79
2021/10/12 17:02:23;;;;;;;;;;;;;;;3.63;100.00;99847.28;5060937;28;19967;-79
2021/10/12 17:04:49;;;;;;;;;;;;;;;3.63;100.00;99850.78;5061061;28;19912;-79
2021/10/12 17:07:16;;;;;;;;;;;;;;;3.65;100.00;99850.75;5061720;28;20255;-78
2021/10/12 17:09:41;;;;;;;;;;;;;;;3.68;100.00;99853.34;5043153;28;19927;-79
2021/10/12 17:12:06;;;;;;;;;;;;;;;3.74;100.00;99844.53;5059509;28;20467;-78
2021/10/12 17:14:32;;;;;;;;;;;;;;;3.71;100.00;99845.44;5037011;28;19924;-79
2021/10/12 17:16:57;;;;;;;;;;;;;;;3.79;100.00;99848.81;5064096;28;20337;-80
2021/10/12 17:19:23;;;;;;;;;;;;;;;3.76;100.00;99848.84;5064546;28;19943;-79
2021/10/12 17:21:49;;;;;;;;;;;;;;;3.76;100.00;99856.72;5064528;28;19921;-79
2021/10/12 17:24:15;;;;;;;;;;;;;;;3.74;100.00;99841.91;5063253;28;19919;-79
2021/10/12 17:26:40;;;;;;;;;;;;;;;3.88;100.00;99862.66;5043028;28;20299;-78
2021/10/12 17:29:06;;;;;;;;;;;;;;;3.83;100.00;99868.00;5064419;28;19924;-79
2021/10/12 17:31:31;;;;;;;;;;;;;;;3.80;100.00;99865.41;5062675;28;19924;-78
2021/10/12 17:33:56;;;;;;;;;;;;;;;3.79;100.00;99877.63;5045883;28;19927;-79
2021/10/12 17:36:22;;;;;;;;;;;;;;;3.86;100.00;99880.19;5046468;28;19920;-80
2021/10/12 17:38:48;;;;;;;;;;;;;;;3.96;100.00;99874.78;5045628;28;19936;-79
2021/10/12 17:41:14;;;;;;;;;;;;;;;3.82;100.00;99877.59;5061424;28;20307;-81
2021/10/12 17:43:41;;;;;;;;;;;;;;;3.79;100.00;99869.78;5046318;28;19921;-80